LFMV

Avignon-Caumont Airport

Avignon/Caumont, France
TAF LFMV 260200Z 2603/2703 35015G25KT CAVOK BECMG 2603/2606 35025G35KT BECMG 2618/2621 35013KT
Issued Valid From Valid To
Apr-26 @ 02:00 UTC
(2 hours ago)
Apr-26 @ 03:00 UTC
(38 minutes ago)
Apr-27 @ 03:00 UTC
(in 23 hours)
Apr-26 @ 03:00 to Apr-27 @ 03:00
TAF LFMV 260200Z 2603/2703 35015G25KT CAVOK
Wind Visibility Clouds Conditions
350° at 15 knots
 Gusting to 25 knots
10,000+ meters
  • No significant clouds
Becoming Apr-26 @ 03:00 to Apr-26 @ 18:00
BECMG 2603/2606 35025G35KT
Wind Visibility Clouds Conditions
350° at 25 knots
 Gusting to 35 knots
10,000+ meters
  • No significant clouds
Becoming Apr-26 @ 18:00 to Apr-27 @ 03:00
BECMG 2618/2621 35013KT
Wind Visibility Clouds Conditions
350° at 13 knots 10,000+ meters
  • No significant clouds
TAF LFMV 260200Z 2603/2703 35015G25KT CAVOK BECMG 2603/2606 35025G35KT BECMG 2618/2621 35013KT
Issued Apr-26 @ 02:00 UTC
(2 hours ago)
Valid From Apr-26 @ 03:00 UTC
(38 minutes ago)
Valid To Apr-27 @ 03:00 UTC
(in 23 hours)
Apr-26 @ 03:00 - Apr-27 @ 03:00
Wind Visibility
350° at 15 knots
 Gusting to 25 knots
10,000+ meters
Clouds
  • No significant clouds
Conditions
Becoming Apr-26 @ 03:00 - Apr-26 @ 18:00
Wind Visibility
350° at 25 knots
 Gusting to 35 knots
10,000+ meters
Clouds
  • No significant clouds
Conditions
Becoming Apr-26 @ 18:00 - Apr-27 @ 03:00
Wind Visibility
350° at 13 knots 10,000+ meters
Clouds
  • No significant clouds
Conditions